createdAt,value
2022-09-11T00:01:08.832Z,50.13
2022-09-11T00:03:37.250Z,49.77
2022-09-11T00:06:06.323Z,49.70
2022-09-11T00:08:35.652Z,49.83
2022-09-11T00:11:05.698Z,49.20
2022-09-11T00:13:33.584Z,49.57
2022-09-11T00:16:03.026Z,49.87
2022-09-11T00:18:30.903Z,49.50
2022-09-11T00:20:59.330Z,49.53
2022-09-11T00:23:28.341Z,49.63
2022-09-11T00:26:01.789Z,49.77
2022-09-11T00:28:29.938Z,49.23
2022-09-11T00:30:59.770Z,49.40
2022-09-11T00:33:28.543Z,49.40
2022-09-11T00:35:58.261Z,49.60
2022-09-11T00:38:27.044Z,49.83
2022-09-11T00:40:55.628Z,49.67
2022-09-11T00:43:25.014Z,49.53
2022-09-11T00:45:57.427Z,49.37
2022-09-11T00:48:29.836Z,49.57
2022-09-11T00:50:59.301Z,49.33
2022-09-11T00:53:30.264Z,49.30
2022-09-11T00:56:02.080Z,49.57
2022-09-11T00:58:38.148Z,49.47
2022-09-11T01:01:06.107Z,49.10
2022-09-11T01:03:33.989Z,49.23
2022-09-11T01:06:02.085Z,49.37
2022-09-11T01:08:29.885Z,49.80
2022-09-11T01:11:05.972Z,49.67
2022-09-11T01:13:42.587Z,49.67
2022-09-11T01:16:17.234Z,49.90
2022-09-11T01:18:54.251Z,49.90
2022-09-11T01:21:42.261Z,49.87
2022-09-11T01:24:32.258Z,49.73
2022-09-11T01:27:18.063Z,49.50
2022-09-11T01:29:51.996Z,49.80
2022-09-11T01:32:24.510Z,50.00
2022-09-11T01:34:57.150Z,50.00
2022-09-11T01:37:31.182Z,49.73
2022-09-11T01:40:06.726Z,49.63
2022-09-11T01:42:39.574Z,49.70
2022-09-11T01:45:10.329Z,49.77
2022-09-11T01:47:39.172Z,50.10
2022-09-11T01:50:10.487Z,49.67
2022-09-11T01:52:45.816Z,49.77
2022-09-11T01:55:18.986Z,49.67
2022-09-11T01:57:52.392Z,49.77
2022-09-11T02:00:22.394Z,49.67
2022-09-11T02:02:59.000Z,49.67
2022-09-11T02:05:30.455Z,49.90
2022-09-11T02:08:05.141Z,49.93
2022-09-11T02:10:37.577Z,49.43
2022-09-11T02:13:12.840Z,49.67
2022-09-11T02:15:47.672Z,49.47
2022-09-11T02:18:24.575Z,49.53
2022-09-11T02:20:53.539Z,49.43
2022-09-11T02:23:22.010Z,49.67
2022-09-11T02:25:53.417Z,49.47
2022-09-11T02:28:21.349Z,49.33
2022-09-11T02:30:51.035Z,49.37
2022-09-11T02:33:29.514Z,49.60
2022-09-11T02:36:09.451Z,49.60
2022-09-11T02:38:46.845Z,49.63
2022-09-11T02:41:23.366Z,49.60
2022-09-11T02:43:59.676Z,49.47
2022-09-11T02:46:43.549Z,49.43
2022-09-11T02:49:20.558Z,49.80
2022-09-11T02:51:56.172Z,49.80
2022-09-11T02:54:34.096Z,49.60
2022-09-11T02:57:09.569Z,49.53
2022-09-11T02:59:43.230Z,49.80
2022-09-11T03:02:15.725Z,49.50
2022-09-11T03:04:43.924Z,49.73
2022-09-11T03:07:12.009Z,49.67
2022-09-11T03:09:39.796Z,49.67
2022-09-11T03:12:15.362Z,49.77
2022-09-11T03:14:43.796Z,49.90
2022-09-11T03:17:13.320Z,49.87
2022-09-11T03:19:41.886Z,49.83
2022-09-11T03:22:09.641Z,49.67
2022-09-11T03:24:39.518Z,49.60
2022-09-11T03:27:07.734Z,49.77
2022-09-11T03:29:35.594Z,50.00
2022-09-11T03:32:03.775Z,49.87
2022-09-11T03:34:33.329Z,50.03
2022-09-11T03:37:02.095Z,49.90
2022-09-11T03:39:30.206Z,49.70
2022-09-11T03:42:00.987Z,49.83
2022-09-11T03:44:29.239Z,49.90
2022-09-11T03:46:57.169Z,49.87
2022-09-11T03:49:25.821Z,49.80
2022-09-11T03:51:54.903Z,49.57
2022-09-11T03:54:22.732Z,49.67
2022-09-11T03:56:52.206Z,49.57
2022-09-11T03:59:21.617Z,49.77
2022-09-11T04:01:50.629Z,49.50
2022-09-11T04:04:18.756Z,49.77
2022-09-11T04:06:46.949Z,49.63
2022-09-11T04:09:17.095Z,50.17
2022-09-11T04:11:44.914Z,49.90
2022-09-11T04:14:22.438Z,49.90
2022-09-11T04:16:50.993Z,50.10
2022-09-11T04:19:21.177Z,49.90
2022-09-11T04:21:49.092Z,49.97
2022-09-11T04:24:18.870Z,50.20
2022-09-11T04:26:47.828Z,49.90
2022-09-11T04:29:22.401Z,49.90
2022-09-11T04:31:51.216Z,49.80
2022-09-11T04:34:20.106Z,49.87
2022-09-11T04:36:47.941Z,49.93
2022-09-11T04:39:22.131Z,49.83
2022-09-11T04:41:50.141Z,49.87
2022-09-11T04:44:20.578Z,49.60
2022-09-11T04:46:48.562Z,49.57
2022-09-11T04:49:16.989Z,49.60
2022-09-11T04:51:47.359Z,49.47
2022-09-11T04:54:21.005Z,49.57
2022-09-11T04:56:50.779Z,49.70
2022-09-11T04:59:22.222Z,49.70
2022-09-11T05:02:12.780Z,49.20
2022-09-11T05:04:43.960Z,49.80
2022-09-11T05:07:13.409Z,49.47
2022-09-11T05:09:43.295Z,49.47
2022-09-11T05:12:13.809Z,49.27
2022-09-11T05:14:42.250Z,49.40
2022-09-11T05:17:10.002Z,49.67
2022-09-11T05:19:41.620Z,49.60
2022-09-11T05:22:10.174Z,49.70
2022-09-11T05:24:41.989Z,49.60
2022-09-11T05:27:09.952Z,49.87
2022-09-11T05:29:40.516Z,49.60
2022-09-11T05:32:13.321Z,50.07
2022-09-11T05:34:42.473Z,49.67
2022-09-11T05:37:12.551Z,49.87
2022-09-11T05:39:44.788Z,49.53
2022-09-11T05:42:15.316Z,49.83
2022-09-11T05:44:48.613Z,49.80
2022-09-11T05:47:17.096Z,49.67
2022-09-11T05:49:49.554Z,49.77
2022-09-11T05:52:17.493Z,49.67
2022-09-11T05:54:47.013Z,49.80
2022-09-11T05:57:15.898Z,49.90
2022-09-11T05:59:44.393Z,49.73
2022-09-11T06:02:14.100Z,49.80
2022-09-11T06:04:47.440Z,49.73
2022-09-11T06:07:15.284Z,49.90
2022-09-11T06:09:46.314Z,49.80
2022-09-11T06:12:14.699Z,49.47
2022-09-11T06:14:44.285Z,49.90
2022-09-11T06:17:13.527Z,49.90
2022-09-11T06:19:41.349Z,50.13
2022-09-11T06:22:09.127Z,50.13
2022-09-11T06:24:41.958Z,50.07
2022-09-11T06:27:09.762Z,50.00
2022-09-11T06:29:40.977Z,50.27
2022-09-11T06:32:08.880Z,50.03
2022-09-11T06:34:40.912Z,50.03
2022-09-11T06:37:11.929Z,49.73
2022-09-11T06:39:39.831Z,49.97
2022-09-11T06:42:10.585Z,49.97
2022-09-11T06:44:38.373Z,49.83
2022-09-11T06:47:07.268Z,49.73
2022-09-11T06:49:36.849Z,50.13
2022-09-11T06:52:24.889Z,49.63
2022-09-11T06:55:16.041Z,49.63
2022-09-11T06:57:51.196Z,50.03
2022-09-11T07:00:23.918Z,50.23
2022-09-11T07:02:52.922Z,49.87
2022-09-11T07:05:22.287Z,49.87
2022-09-11T07:07:53.417Z,50.03
2022-09-11T07:10:21.265Z,49.63
2022-09-11T07:12:55.279Z,50.20
2022-09-11T07:15:23.320Z,50.07
2022-09-11T07:17:51.258Z,50.40
2022-09-11T07:20:20.661Z,50.03
2022-09-11T07:22:48.789Z,50.20
2022-09-11T07:25:19.316Z,50.23
2022-09-11T07:27:48.024Z,50.13
2022-09-11T07:30:16.531Z,50.33
2022-09-11T07:32:46.640Z,50.37
2022-09-11T07:35:17.425Z,50.57
2022-09-11T07:37:50.614Z,50.93
2022-09-11T07:40:24.177Z,51.07
2022-09-11T07:42:52.197Z,51.47
2022-09-11T07:45:22.867Z,51.53
2022-09-11T07:47:51.085Z,51.50
2022-09-11T07:50:18.919Z,52.03
2022-09-11T07:52:46.936Z,52.10
2022-09-11T07:55:16.053Z,52.27
2022-09-11T07:57:46.553Z,52.50
2022-09-11T08:00:16.689Z,52.47
2022-09-11T08:02:59.098Z,51.87
2022-09-11T08:05:33.732Z,52.53
2022-09-11T08:08:10.162Z,52.90
2022-09-11T08:10:40.802Z,52.50
2022-09-11T08:13:13.063Z,52.93
2022-09-11T08:15:48.201Z,52.67
2022-09-11T08:18:16.507Z,52.83
2022-09-11T08:20:44.515Z,52.90
2022-09-11T08:23:12.845Z,52.70
2022-09-11T08:25:40.651Z,53.07
2022-09-11T08:28:11.709Z,53.20
2022-09-11T08:30:39.964Z,53.07
2022-09-11T08:33:10.625Z,53.10
2022-09-11T08:35:39.026Z,53.47
2022-09-11T08:38:06.862Z,53.20
2022-09-11T08:40:38.790Z,53.00
2022-09-11T08:43:15.966Z,53.50
2022-09-11T08:45:49.752Z,53.00
2022-09-11T08:48:17.647Z,53.27
2022-09-11T08:50:45.438Z,53.20
2022-09-11T08:53:18.803Z,52.93
2022-09-11T08:55:51.733Z,52.73
2022-09-11T08:58:29.129Z,52.80
2022-09-11T09:01:08.804Z,53.20
2022-09-11T09:04:06.688Z,53.33
2022-09-11T09:06:47.258Z,52.60
2022-09-11T09:09:25.524Z,52.57
2022-09-11T09:11:59.878Z,53.00
2022-09-11T09:14:53.758Z,52.83
2022-09-11T09:17:25.979Z,53.27
2022-09-11T09:20:01.351Z,53.33
2022-09-11T09:22:39.225Z,53.57
2022-09-11T09:25:12.804Z,53.23
2022-09-11T09:27:46.339Z,53.60
2022-09-11T09:30:18.231Z,53.07
2022-09-11T09:32:53.009Z,53.40
2022-09-11T09:35:24.683Z,53.17
2022-09-11T09:37:54.433Z,53.07
2022-09-11T09:40:26.255Z,53.03
2022-09-11T09:43:12.103Z,53.33
2022-09-11T09:45:49.456Z,52.03
2022-09-11T09:48:17.636Z,53.10
2022-09-11T09:50:45.693Z,53.37
2022-09-11T09:53:21.110Z,53.20
2022-09-11T09:55:51.959Z,53.30
2022-09-11T09:58:20.041Z,53.23
2022-09-11T10:00:49.114Z,53.43
2022-09-11T10:03:21.717Z,53.33
2022-09-11T10:05:53.153Z,53.40
2022-09-11T10:08:34.544Z,53.03
2022-09-11T10:11:04.652Z,53.47
2022-09-11T10:13:33.541Z,53.47
2022-09-11T10:16:05.176Z,53.33
2022-09-11T10:18:42.651Z,53.37
2022-09-11T10:21:24.022Z,53.40
2022-09-11T10:23:54.312Z,53.50
2022-09-11T10:26:27.405Z,53.50
2022-09-11T10:28:56.825Z,53.17
2022-09-11T10:31:26.452Z,53.20
2022-09-11T10:33:57.218Z,53.37
2022-09-11T10:36:27.036Z,53.27
2022-09-11T10:38:56.517Z,53.53
2022-09-11T10:41:26.053Z,53.00
2022-09-11T10:43:58.769Z,52.97
2022-09-11T10:46:39.296Z,53.43
2022-09-11T10:49:21.737Z,52.83
2022-09-11T10:52:01.779Z,53.60
2022-09-11T10:54:41.126Z,53.83
2022-09-11T10:57:18.035Z,53.73
2022-09-11T10:59:56.778Z,53.13
2022-09-11T11:02:31.629Z,53.00
2022-09-11T11:05:03.772Z,53.70
2022-09-11T11:07:51.130Z,53.43
2022-09-11T11:10:28.187Z,53.63
2022-09-11T11:13:13.293Z,53.60
2022-09-11T11:15:57.415Z,53.50
2022-09-11T11:18:47.470Z,53.43
2022-09-11T11:21:28.694Z,53.07
2022-09-11T11:24:07.192Z,53.50
2022-09-11T11:26:49.952Z,53.50
2022-09-11T11:29:40.271Z,52.70
2022-09-11T11:32:20.668Z,53.30
2022-09-11T11:35:08.096Z,53.60
2022-09-11T11:37:40.560Z,53.37
2022-09-11T11:40:18.578Z,53.57
2022-09-11T11:42:55.933Z,54.00
2022-09-11T11:45:31.826Z,53.03
2022-09-11T11:48:02.404Z,53.70
2022-09-11T11:50:38.383Z,53.23
2022-09-11T11:53:12.254Z,53.87
2022-09-11T11:55:47.908Z,53.97
2022-09-11T11:58:24.047Z,53.43
2022-09-11T12:00:59.760Z,53.40
2022-09-11T12:03:32.919Z,53.50
2022-09-11T12:06:02.968Z,53.13
2022-09-11T12:08:30.809Z,53.60
2022-09-11T12:11:02.749Z,53.50
2022-09-11T12:13:34.417Z,53.80
2022-09-11T12:16:11.470Z,53.53
2022-09-11T12:18:42.116Z,53.40
2022-09-11T12:21:36.666Z,53.50
2022-09-11T12:24:15.185Z,53.83
2022-09-11T12:26:42.986Z,53.17
2022-09-11T12:29:49.687Z,53.23
2022-09-11T12:32:28.928Z,53.03
2022-09-11T12:35:15.909Z,52.93
2022-09-11T12:37:53.552Z,53.40
2022-09-11T12:40:32.201Z,52.73
2022-09-11T12:43:18.285Z,53.43
2022-09-11T12:45:48.148Z,53.50
2022-09-11T12:48:18.021Z,53.30
2022-09-11T12:50:55.250Z,53.87
2022-09-11T12:53:27.737Z,53.23
2022-09-11T12:55:59.881Z,53.37
2022-09-11T12:58:33.939Z,53.43
2022-09-11T13:01:06.771Z,53.60
2022-09-11T13:03:35.217Z,53.10
2022-09-11T13:06:07.657Z,53.43
2022-09-11T13:08:46.087Z,53.13
2022-09-11T13:11:37.246Z,53.23
2022-09-11T13:14:45.810Z,53.20
2022-09-11T13:17:16.654Z,53.67
2022-09-11T13:19:44.428Z,53.27
2022-09-11T13:22:26.349Z,53.17
2022-09-11T13:25:08.867Z,53.17
2022-09-11T13:27:39.308Z,53.97
2022-09-11T13:30:08.774Z,53.17
2022-09-11T13:32:36.958Z,53.47
2022-09-11T13:35:10.994Z,53.57
2022-09-11T13:37:42.939Z,53.80
2022-09-11T13:40:20.068Z,53.57
2022-09-11T13:42:48.938Z,54.30
2022-09-11T13:45:19.106Z,53.03
2022-09-11T13:47:47.793Z,53.23
2022-09-11T13:50:18.381Z,53.13
2022-09-11T13:52:47.779Z,52.97
2022-09-11T13:55:20.270Z,52.30
2022-09-11T13:57:56.217Z,54.00
2022-09-11T14:00:45.349Z,52.80
2022-09-11T14:03:22.862Z,52.93
2022-09-11T14:05:53.795Z,52.90
2022-09-11T14:08:32.412Z,53.40
2022-09-11T14:11:07.076Z,53.23
2022-09-11T14:13:43.309Z,52.90
2022-09-11T14:16:22.797Z,53.23
2022-09-11T14:18:54.045Z,53.87
2022-09-11T14:21:25.345Z,53.47
2022-09-11T14:23:54.857Z,53.37
2022-09-11T14:26:25.585Z,53.30
2022-09-11T14:29:05.039Z,53.20
2022-09-11T14:31:40.886Z,52.87
2022-09-11T14:34:14.660Z,53.17
2022-09-11T14:36:45.518Z,53.40
2022-09-11T14:39:18.183Z,53.17
2022-09-11T14:41:47.370Z,53.60
2022-09-11T14:44:17.392Z,53.07
2022-09-11T14:46:45.242Z,53.50
2022-09-11T14:49:13.039Z,52.47
2022-09-11T14:51:41.710Z,53.20
2022-09-11T14:54:14.996Z,52.90
2022-09-11T14:56:42.941Z,53.27
2022-09-11T14:59:12.309Z,53.50
2022-09-11T15:01:40.084Z,53.30
2022-09-11T15:04:11.114Z,53.60
2022-09-11T15:06:38.934Z,53.60
2022-09-11T15:09:06.732Z,53.10
2022-09-11T15:11:39.218Z,52.83
2022-09-11T15:14:27.818Z,53.57
2022-09-11T15:16:58.098Z,53.10
2022-09-11T15:19:26.342Z,53.70
2022-09-11T15:21:55.424Z,52.83
2022-09-11T15:24:23.830Z,53.50
2022-09-11T15:26:52.682Z,53.40
2022-09-11T15:29:21.750Z,53.73
2022-09-11T15:31:50.164Z,53.47
2022-09-11T15:34:19.353Z,53.60
2022-09-11T15:36:48.701Z,53.30
2022-09-11T15:39:18.363Z,53.10
2022-09-11T15:41:47.337Z,53.87
2022-09-11T15:44:19.822Z,54.17
2022-09-11T15:46:48.224Z,53.87
2022-09-11T15:49:16.121Z,54.00
2022-09-11T15:51:45.341Z,53.40
2022-09-11T15:54:14.105Z,53.30
2022-09-11T15:56:42.125Z,53.73
2022-09-11T15:59:11.625Z,52.80
2022-09-11T16:01:39.939Z,53.77
2022-09-11T16:04:09.838Z,53.23
2022-09-11T16:06:39.406Z,53.23
2022-09-11T16:09:10.535Z,53.50
2022-09-11T16:11:40.833Z,53.77
2022-09-11T16:14:09.123Z,53.20
2022-09-11T16:16:37.600Z,53.70
2022-09-11T16:19:05.334Z,53.60
2022-09-11T16:21:33.553Z,52.80
2022-09-11T16:24:04.132Z,53.03
2022-09-11T16:26:33.486Z,53.63
2022-09-11T16:29:02.039Z,53.80
2022-09-11T16:31:29.960Z,53.33
2022-09-11T16:33:57.838Z,53.50
2022-09-11T16:36:25.669Z,53.57
2022-09-11T16:38:54.774Z,53.57
2022-09-11T16:41:23.575Z,53.57
2022-09-11T16:43:54.036Z,53.97
2022-09-11T16:46:24.037Z,53.50
2022-09-11T16:48:54.988Z,53.40
2022-09-11T16:51:23.644Z,52.90
2022-09-11T16:53:51.839Z,53.97
2022-09-11T16:56:22.137Z,53.03
2022-09-11T16:58:50.183Z,53.53
2022-09-11T17:01:21.563Z,53.13
2022-09-11T17:03:51.652Z,53.23
2022-09-11T17:06:20.998Z,53.23
2022-09-11T17:08:51.276Z,52.97
2022-09-11T17:11:21.519Z,53.37
2022-09-11T17:13:50.404Z,53.30
2022-09-11T17:16:21.622Z,53.00
2022-09-11T17:18:50.401Z,53.57
2022-09-11T17:21:18.209Z,53.20
2022-09-11T17:23:46.396Z,52.83
2022-09-11T17:26:16.736Z,52.50
2022-09-11T17:28:47.234Z,52.80
2022-09-11T17:31:17.489Z,52.70
2022-09-11T17:33:47.180Z,53.20
2022-09-11T17:36:17.273Z,52.73
2022-09-11T17:38:46.537Z,52.93
2022-09-11T17:41:14.807Z,52.97
2022-09-11T17:43:42.999Z,52.60
2022-09-11T17:46:12.358Z,52.43
2022-09-11T17:48:41.866Z,52.60
2022-09-11T17:51:12.952Z,53.33
2022-09-11T17:53:44.396Z,52.70
2022-09-11T17:56:14.290Z,53.17
2022-09-11T17:58:44.730Z,52.50
2022-09-11T18:01:16.840Z,52.00
2022-09-11T18:03:45.365Z,52.93
2022-09-11T18:06:23.047Z,52.87
2022-09-11T18:08:50.817Z,52.87
2022-09-11T18:11:18.814Z,52.23
2022-09-11T18:13:46.597Z,52.90
2022-09-11T18:16:14.908Z,52.67
2022-09-11T18:18:42.739Z,52.07
2022-09-11T18:21:12.440Z,52.47
2022-09-11T18:23:44.006Z,52.17
2022-09-11T18:26:21.922Z,52.23
2022-09-11T18:28:50.287Z,52.13
2022-09-11T18:31:19.807Z,52.17
2022-09-11T18:33:54.538Z,52.30
2022-09-11T18:36:23.407Z,52.50
2022-09-11T18:38:53.405Z,52.87
2022-09-11T18:41:22.402Z,52.67
2022-09-11T18:43:50.770Z,52.97
2022-09-11T18:46:18.997Z,52.87
2022-09-11T18:48:47.024Z,52.37
2022-09-11T18:51:15.189Z,52.47
2022-09-11T18:53:43.737Z,52.63
2022-09-11T18:56:13.363Z,53.13
2022-09-11T18:58:41.784Z,52.27
2022-09-11T19:01:12.182Z,52.73
2022-09-11T19:03:41.109Z,53.30
2022-09-11T19:06:12.550Z,53.00
2022-09-11T19:08:41.883Z,52.67
2022-09-11T19:11:13.198Z,53.03
2022-09-11T19:13:42.177Z,52.80
2022-09-11T19:16:10.551Z,53.00
2022-09-11T19:18:39.790Z,52.60
2022-09-11T19:21:10.206Z,52.23
2022-09-11T19:23:40.403Z,52.77
2022-09-11T19:26:13.266Z,52.80
2022-09-11T19:28:44.833Z,52.77
2022-09-11T19:31:17.265Z,52.70
2022-09-11T19:33:45.525Z,51.87
2022-09-11T19:36:17.714Z,52.63
2022-09-11T19:38:47.316Z,52.47
2022-09-11T19:41:20.377Z,52.77
2022-09-11T19:43:50.693Z,52.10
2022-09-11T19:46:20.671Z,53.00
2022-09-11T19:48:49.415Z,52.37
2022-09-11T19:51:21.142Z,52.37
2022-09-11T19:53:52.206Z,52.57
2022-09-11T19:56:20.435Z,52.73
2022-09-11T19:58:49.860Z,52.50
2022-09-11T20:01:25.857Z,52.80
2022-09-11T20:03:55.257Z,52.60
2022-09-11T20:06:35.210Z,52.37
2022-09-11T20:11:52.500Z,52.10
2022-09-11T20:14:21.805Z,52.00
2022-09-11T20:16:49.673Z,52.67
2022-09-11T20:19:17.604Z,52.47
2022-09-11T20:21:45.619Z,52.83
2022-09-11T20:24:14.879Z,52.43
2022-09-11T20:26:44.514Z,52.03
2022-09-11T20:29:19.793Z,52.50
2022-09-11T20:31:51.000Z,52.33
2022-09-11T20:34:27.840Z,51.57
2022-09-11T20:36:56.594Z,52.47
2022-09-11T20:39:24.324Z,52.23
2022-09-11T20:41:55.769Z,52.83
2022-09-11T20:44:25.012Z,51.73
2022-09-11T20:46:57.312Z,52.27
2022-09-11T20:49:25.147Z,52.50
2022-09-11T20:51:52.939Z,52.53
2022-09-11T20:54:20.782Z,51.70
2022-09-11T20:56:48.565Z,52.87
2022-09-11T20:59:16.298Z,51.80
2022-09-11T21:01:44.062Z,51.80
2022-09-11T21:04:13.272Z,52.70
2022-09-11T21:06:41.153Z,52.50
2022-09-11T21:09:11.789Z,51.73
2022-09-11T21:11:41.098Z,52.40
2022-09-11T21:14:09.266Z,52.40
2022-09-11T21:16:37.320Z,51.67
2022-09-11T21:19:06.619Z,52.50
2022-09-11T21:21:37.688Z,52.63
2022-09-11T21:24:08.537Z,52.70
2022-09-11T21:26:36.820Z,52.60
2022-09-11T21:29:06.815Z,52.67
2022-09-11T21:31:35.606Z,52.30
2022-09-11T21:34:03.572Z,52.57
2022-09-11T21:36:32.178Z,52.30
2022-09-11T21:39:01.254Z,52.20
2022-09-11T21:41:29.122Z,52.70
2022-09-11T21:43:56.949Z,52.67
2022-09-11T21:46:25.664Z,52.47
2022-09-11T21:48:53.542Z,52.73
2022-09-11T21:51:21.732Z,52.40
2022-09-11T21:53:50.827Z,51.97
2022-09-11T21:56:24.734Z,52.13
2022-09-11T21:58:53.142Z,52.33
2022-09-11T22:01:22.642Z,52.33
2022-09-11T22:03:50.838Z,52.10
2022-09-11T22:06:19.070Z,52.07
2022-09-11T22:08:47.268Z,52.53
2022-09-11T22:11:15.636Z,51.57
2022-09-11T22:13:45.050Z,52.03
2022-09-11T22:16:15.782Z,51.87
2022-09-11T22:18:47.589Z,52.07
2022-09-11T22:21:15.918Z,51.93
2022-09-11T22:23:43.788Z,52.17
2022-09-11T22:26:13.759Z,52.27
2022-09-11T22:28:41.606Z,51.93
2022-09-11T22:31:13.263Z,52.47
2022-09-11T22:33:41.930Z,52.33
2022-09-11T22:36:11.709Z,51.90
2022-09-11T22:38:39.620Z,52.00
2022-09-11T22:41:07.896Z,52.03
2022-09-11T22:43:35.814Z,52.40
2022-09-11T22:46:03.708Z,51.87
2022-09-11T22:48:33.148Z,51.90
2022-09-11T22:51:01.050Z,52.03
2022-09-11T22:53:29.719Z,52.07
2022-09-11T22:55:58.177Z,52.43
2022-09-11T22:58:26.254Z,52.20
2022-09-11T23:00:56.039Z,52.03
2022-09-11T23:03:24.234Z,52.30
2022-09-11T23:06:14.689Z,52.20
2022-09-11T23:08:42.563Z,51.77
2022-09-11T23:11:11.333Z,51.73
2022-09-11T23:13:39.124Z,51.30
2022-09-11T23:16:13.071Z,52.30
2022-09-11T23:18:40.942Z,51.57
2022-09-11T23:21:10.839Z,51.90
2022-09-11T23:23:42.244Z,51.47
2022-09-11T23:26:10.472Z,52.33
2022-09-11T23:28:38.743Z,52.30
2022-09-11T23:31:12.001Z,52.10
2022-09-11T23:33:39.853Z,51.57
2022-09-11T23:36:08.712Z,51.33
2022-09-11T23:38:38.393Z,51.33
2022-09-11T23:41:07.068Z,51.73
2022-09-11T23:43:34.840Z,51.47
2022-09-11T23:46:02.667Z,52.00
2022-09-11T23:48:30.602Z,51.43
2022-09-11T23:50:58.402Z,51.33
2022-09-11T23:53:26.200Z,51.37
2022-09-11T23:55:56.298Z,51.40
2022-09-11T23:58:24.551Z,51.50
